Time;durP1;ratioP1;P1;durP2;ratioP2;P2;SDS_P1;SDS_P2;PMS_P1;PMS_P2;Temp;Humidity;BMP_temperature;BMP_pressure;BME280_temperature;BME280_humidity;BME280_pressure;Samples;Min_cycle;Max_cycle;Signal;HPM_P1;HPM_P2
2023/09/30 00:02:07;;;;;;;6.40;3.90;;;18.80;99.90;;;;;;5014676;28;20567;-74
2023/09/30 00:04:33;;;;;;;6.67;4.13;;;18.80;99.90;;;;;;5014606;28;20172;-74
2023/09/30 00:09:27;;;;;;;9.87;4.50;;;18.90;99.90;;;;;;5034269;23;20870;-72
2023/09/30 00:11:55;;;;;;;8.53;4.33;;;18.80;99.90;;;;;;5014125;28;20407;-72
2023/09/30 00:14:20;;;;;;;5.83;3.77;;;18.70;99.90;;;;;;5013733;28;20183;-72
2023/09/30 00:16:46;;;;;;;7.00;4.90;;;18.80;99.90;;;;;;5013874;28;20396;-72
2023/09/30 00:19:11;;;;;;;7.47;4.53;;;18.80;99.90;;;;;;5014057;28;20187;-72
2023/09/30 00:21:37;;;;;;;6.03;3.53;;;18.80;99.90;;;;;;5013423;28;20168;-72
2023/09/30 00:24:02;;;;;;;7.90;4.50;;;18.80;99.90;;;;;;5013605;28;20237;-71
2023/09/30 00:26:28;;;;;;;6.60;4.10;;;18.70;99.90;;;;;;5013604;28;20638;-72
2023/09/30 00:28:53;;;;;;;7.70;4.57;;;18.70;99.90;;;;;;5013705;28;20565;-71
2023/09/30 00:31:19;;;;;;;7.20;4.07;;;18.70;99.90;;;;;;5013670;28;20567;-72
2023/09/30 00:33:45;;;;;;;5.17;3.20;;;18.90;99.90;;;;;;5012076;28;20172;-72
2023/09/30 00:36:11;;;;;;;7.83;3.63;;;19.00;99.90;;;;;;5013148;28;20230;-73
2023/09/30 00:38:40;;;;;;;4.23;3.40;;;19.00;99.90;;;;;;5013659;28;20195;-72
2023/09/30 00:41:06;;;;;;;7.33;3.70;;;19.00;99.90;;;;;;5013640;28;20418;-74
2023/09/30 00:43:32;;;;;;;5.53;3.20;;;19.10;99.90;;;;;;5013385;28;20898;-71
2023/09/30 00:46:25;;;;;;;6.77;4.27;;;19.00;99.90;;;;;;5013540;28;20787;-73
2023/09/30 00:48:51;;;;;;;6.00;3.43;;;18.80;99.90;;;;;;4993797;28;20423;-73
2023/09/30 00:51:17;;;;;;;5.40;2.90;;;18.90;99.90;;;;;;4993722;28;20502;-73
2023/09/30 00:53:44;;;;;;;4.90;3.03;;;18.80;99.90;;;;;;4993535;28;20408;-72
2023/09/30 00:56:11;;;;;;;5.03;3.20;;;18.70;99.90;;;;;;4993698;28;20462;-73
2023/09/30 00:58:38;;;;;;;4.20;3.03;;;18.60;99.90;;;;;;5013070;28;20454;-72
2023/09/30 01:01:05;;;;;;;4.90;2.87;;;18.70;99.90;;;;;;5013426;28;20476;-72
2023/09/30 01:03:30;;;;;;;5.20;2.70;;;18.90;99.90;;;;;;5013135;28;20755;-72
2023/09/30 01:05:56;;;;;;;5.80;3.20;;;18.70;99.90;;;;;;5013358;28;20445;-71
2023/09/30 01:08:22;;;;;;;3.00;2.60;;;18.90;99.90;;;;;;5012798;28;20447;-72
2023/09/30 01:10:48;;;;;;;4.10;2.60;;;18.80;99.90;;;;;;5012761;28;20218;-72
2023/09/30 01:13:14;;;;;;;4.90;2.80;;;18.70;99.90;;;;;;5012757;28;20407;-72
2023/09/30 01:15:39;;;;;;;3.63;2.30;;;18.80;99.90;;;;;;5012733;28;20247;-72
2023/09/30 01:18:05;;;;;;;4.13;2.73;;;18.90;99.90;;;;;;5012582;28;20570;-72
2023/09/30 01:20:31;;;;;;;4.23;2.37;;;18.90;99.90;;;;;;5012460;28;20172;-73
2023/09/30 01:22:57;;;;;;;4.50;2.70;;;18.70;99.90;;;;;;5012855;28;20172;-73
2023/09/30 01:25:24;;;;;;;2.80;2.40;;;18.50;99.90;;;;;;5012694;28;20451;-72
2023/09/30 01:27:51;;;;;;;3.93;2.90;;;18.60;99.90;;;;;;5011624;28;20522;-72
2023/09/30 01:30:17;;;;;;;4.13;3.27;;;18.80;99.90;;;;;;5012614;28;20442;-72
2023/09/30 01:32:44;;;;;;;5.00;3.30;;;19.00;99.90;;;;;;5012543;28;20507;-73
2023/09/30 01:35:10;;;;;;;3.97;3.27;;;18.90;99.90;;;;;;5012422;28;20410;-73
2023/09/30 01:37:35;;;;;;;3.83;3.20;;;18.90;99.90;;;;;;5012273;28;20434;-72
2023/09/30 01:40:03;;;;;;;4.40;3.10;;;18.90;99.90;;;;;;5012295;28;20172;-73
2023/09/30 01:42:29;;;;;;;4.30;2.77;;;18.90;99.90;;;;;;5012696;28;20254;-73
2023/09/30 01:44:56;;;;;;;4.83;3.50;;;18.80;99.90;;;;;;5012542;28;20842;-72
2023/09/30 01:47:22;;;;;;;3.40;2.60;;;18.80;99.90;;;;;;5012141;28;20258;-73
2023/09/30 01:49:47;;;;;;;5.27;2.83;;;18.70;99.90;;;;;;5012168;28;20538;-72
2023/09/30 01:52:13;;;;;;;5.40;3.13;;;18.90;99.90;;;;;;5012215;28;20175;-73
2023/09/30 01:54:38;;;;;;;4.90;3.00;;;19.00;99.90;;;;;;5012305;28;20547;-73
2023/09/30 01:57:04;;;;;;;5.40;3.30;;;19.00;99.90;;;;;;5010884;28;20172;-73
2023/09/30 01:59:30;;;;;;;3.87;3.23;;;19.00;99.90;;;;;;5013099;28;20526;-73
2023/09/30 02:01:55;;;;;;;3.70;3.10;;;18.90;99.90;;;;;;5012221;28;20168;-73
2023/09/30 02:04:21;;;;;;;3.50;2.77;;;18.90;99.90;;;;;;5010926;28;20190;-72
2023/09/30 02:06:46;;;;;;;3.37;2.80;;;18.60;99.90;;;;;;5012546;28;20199;-72
2023/09/30 02:09:12;;;;;;;4.23;2.97;;;18.70;99.90;;;;;;5012142;28;20358;-71
2023/09/30 02:11:41;;;;;;;4.43;3.10;;;18.80;99.90;;;;;;5012614;28;20581;-72
2023/09/30 02:14:06;;;;;;;3.70;3.03;;;18.80;99.90;;;;;;5012798;28;20410;-72
2023/09/30 02:16:32;;;;;;;5.03;3.40;;;18.80;99.90;;;;;;5012136;28;20410;-73
2023/09/30 02:18:58;;;;;;;7.20;3.73;;;18.70;99.90;;;;;;5012307;28;20199;-72
2023/09/30 02:21:24;;;;;;;5.17;3.93;;;18.60;99.90;;;;;;5012365;28;20194;-72
2023/09/30 02:23:49;;;;;;;8.30;3.70;;;18.50;99.90;;;;;;5012220;28;20486;-73
2023/09/30 02:26:15;;;;;;;6.53;3.37;;;18.50;99.90;;;;;;5012552;28;20176;-73
2023/09/30 02:28:41;;;;;;;3.13;2.80;;;18.50;99.90;;;;;;5012035;28;20221;-73
2023/09/30 02:31:07;;;;;;;4.40;3.90;;;18.50;99.90;;;;;;5012237;28;20474;-72
2023/09/30 02:33:35;;;;;;;4.50;3.47;;;18.10;99.90;;;;;;5012248;28;20183;-71
2023/09/30 02:36:01;;;;;;;5.33;3.57;;;18.10;99.90;;;;;;5012235;28;20434;-71
2023/09/30 02:38:27;;;;;;;4.50;3.37;;;18.10;99.90;;;;;;5012883;28;20488;-72
2023/09/30 02:40:54;;;;;;;4.73;3.40;;;18.10;99.90;;;;;;5015925;28;20443;-72
2023/09/30 02:43:20;;;;;;;7.63;3.87;;;18.10;99.90;;;;;;5016162;28;20187;-73
2023/09/30 02:45:46;;;;;;;5.07;3.77;;;18.10;99.90;;;;;;5014414;28;20897;-73
2023/09/30 02:48:12;;;;;;;5.03;3.80;;;18.00;99.90;;;;;;5015630;28;20196;-72
2023/09/30 02:50:39;;;;;;;6.40;3.80;;;18.10;99.90;;;;;;5015635;28;20465;-72
2023/09/30 02:53:05;;;;;;;5.00;3.80;;;18.00;99.90;;;;;;5015502;28;20168;-72
2023/09/30 02:55:30;;;;;;;4.37;3.87;;;17.80;99.90;;;;;;5015577;28;20530;-72
2023/09/30 02:57:57;;;;;;;6.47;3.83;;;17.90;99.90;;;;;;5015396;28;20188;-73
2023/09/30 03:00:23;;;;;;;7.37;5.00;;;18.00;99.90;;;;;;5013921;28;20178;-73
2023/09/30 03:02:53;;;;;;;5.93;3.67;;;18.00;99.90;;;;;;5015442;28;20407;-73
2023/09/30 03:05:20;;;;;;;6.00;3.97;;;18.30;99.90;;;;;;5015508;28;20264;-72
2023/09/30 03:07:46;;;;;;;5.07;3.67;;;18.30;99.90;;;;;;5015103;28;20879;-72
2023/09/30 03:10:14;;;;;;;6.50;4.30;;;18.30;99.90;;;;;;5015276;28;20960;-72
2023/09/30 03:12:39;;;;;;;7.00;3.93;;;18.40;99.90;;;;;;5015004;28;20415;-72
2023/09/30 03:15:06;;;;;;;5.17;4.13;;;18.40;99.90;;;;;;5015582;28;20407;-74
2023/09/30 03:17:32;;;;;;;7.07;3.60;;;18.50;99.90;;;;;;5015017;28;20195;-72
2023/09/30 03:19:58;;;;;;;7.73;4.33;;;18.50;99.90;;;;;;5015236;28;20403;-73
2023/09/30 03:22:26;;;;;;;6.90;4.10;;;18.50;99.90;;;;;;5014315;28;20176;-73
2023/09/30 03:24:53;;;;;;;7.17;4.00;;;18.50;99.90;;;;;;5015074;28;20411;-72
2023/09/30 03:27:20;;;;;;;6.37;4.37;;;18.60;99.90;;;;;;5014653;28;20415;-74
2023/09/30 03:29:46;;;;;;;7.03;4.17;;;18.60;99.90;;;;;;5015391;28;20774;-73
2023/09/30 03:32:11;;;;;;;4.13;3.57;;;18.60;99.90;;;;;;5014628;28;20404;-72
2023/09/30 03:34:37;;;;;;;5.00;3.67;;;18.60;99.90;;;;;;5014995;28;20403;-72
2023/09/30 03:37:06;;;;;;;7.30;3.70;;;18.60;99.90;;;;;;5014607;28;20554;-73
2023/09/30 03:39:32;;;;;;;6.87;4.33;;;18.60;99.90;;;;;;5014630;28;20175;-73
2023/09/30 03:41:59;;;;;;;4.97;3.33;;;18.70;99.90;;;;;;5014624;28;20453;-72
2023/09/30 03:44:24;;;;;;;6.60;3.37;;;18.50;99.90;;;;;;5014349;28;20489;-73
2023/09/30 03:46:52;;;;;;;7.67;3.87;;;18.60;99.90;;;;;;5014579;28;20438;-73
2023/09/30 03:49:19;;;;;;;5.03;3.03;;;18.70;99.90;;;;;;5013842;28;20662;-72
2023/09/30 03:51:46;;;;;;;4.83;3.80;;;18.70;99.90;;;;;;5014688;28;20490;-72
2023/09/30 03:54:11;;;;;;;4.67;3.67;;;18.70;99.90;;;;;;5014709;28;20403;-73
2023/09/30 03:56:41;;;;;;;5.90;3.83;;;18.70;99.90;;;;;;5014381;28;20407;-72
2023/09/30 03:59:08;;;;;;;8.00;3.80;;;18.70;99.90;;;;;;5004515;28;20229;-74
2023/09/30 04:01:34;;;;;;;4.97;3.23;;;18.80;99.90;;;;;;5004806;28;20921;-73
2023/09/30 04:04:00;;;;;;;8.20;4.10;;;18.80;99.90;;;;;;5004754;28;20462;-73
2023/09/30 04:06:26;;;;;;;4.40;3.40;;;18.80;99.90;;;;;;5003141;28;20453;-73
2023/09/30 04:08:51;;;;;;;6.40;4.30;;;18.60;99.90;;;;;;5004353;28;20459;-73
2023/09/30 04:11:19;;;;;;;5.33;3.70;;;18.50;99.90;;;;;;5004558;28;20215;-74
2023/09/30 04:13:45;;;;;;;5.33;3.80;;;18.50;99.90;;;;;;5004696;28;20176;-73
2023/09/30 04:16:11;;;;;;;6.50;3.63;;;18.60;99.90;;;;;;5013071;28;20481;-73
2023/09/30 04:18:38;;;;;;;5.30;3.43;;;18.40;99.90;;;;;;5013446;28;20419;-73
2023/09/30 04:21:04;;;;;;;7.60;3.40;;;18.30;99.90;;;;;;5013310;28;20474;-73
2023/09/30 04:23:30;;;;;;;6.95;3.80;;;18.20;99.90;;;;;;5011670;28;20438;-73
2023/09/30 04:25:55;;;;;;;5.07;3.93;;;18.20;99.90;;;;;;5012324;28;20178;-73
2023/09/30 04:28:21;;;;;;;6.77;3.87;;;18.40;99.90;;;;;;5013203;28;20430;-71
2023/09/30 04:30:51;;;;;;;5.20;4.00;;;18.40;99.90;;;;;;5013510;28;20226;-69
2023/09/30 04:33:20;;;;;;;5.60;3.83;;;18.40;99.90;;;;;;5013208;28;20169;-70
2023/09/30 04:35:45;;;;;;;6.80;4.47;;;18.40;99.90;;;;;;5013661;28;20438;-70
2023/09/30 04:38:13;;;;;;;6.57;3.97;;;18.40;99.90;;;;;;5013800;28;20732;-70
2023/09/30 04:40:39;;;;;;;6.20;4.30;;;18.40;99.90;;;;;;5013612;28;20691;-70
2023/09/30 04:43:05;;;;;;;5.00;4.20;;;18.30;99.90;;;;;;5013004;28;20450;-69
2023/09/30 04:45:31;;;;;;;6.37;4.07;;;18.40;99.90;;;;;;5013741;28;20175;-69
2023/09/30 04:47:56;;;;;;;7.17;4.80;;;18.40;99.90;;;;;;5013438;28;20423;-70
2023/09/30 04:50:22;;;;;;;6.60;3.80;;;18.30;99.90;;;;;;5013398;28;20203;-69
2023/09/30 04:52:48;;;;;;;4.30;3.63;;;18.40;99.90;;;;;;5013191;28;20168;-69
2023/09/30 04:55:18;;;;;;;6.67;4.77;;;18.50;99.90;;;;;;5012945;28;20179;-70
2023/09/30 04:57:45;;;;;;;5.63;4.10;;;18.50;99.90;;;;;;5013325;28;20431;-70
2023/09/30 05:00:18;;;;;;;5.73;4.47;;;18.40;99.90;;;;;;5013710;28;20794;-71
2023/09/30 05:02:47;;;;;;;4.03;3.23;;;18.40;99.90;;;;;;5013138;28;20414;-69
2023/09/30 05:05:14;;;;;;;5.60;3.70;;;18.50;99.90;;;;;;5012997;28;20882;-69
2023/09/30 05:07:41;;;;;;;6.20;3.87;;;18.30;99.90;;;;;;5012665;28;21011;-69
2023/09/30 05:10:11;;;;;;;6.00;4.17;;;18.10;99.90;;;;;;5012701;28;20443;-70
2023/09/30 05:12:37;;;;;;;4.53;3.93;;;17.80;99.90;;;;;;5013023;28;20472;-69
2023/09/30 05:15:05;;;;;;;5.50;3.97;;;17.90;99.90;;;;;;5012624;28;20418;-70
2023/09/30 05:17:31;;;;;;;4.30;3.83;;;18.00;99.90;;;;;;5012801;28;20426;-69
2023/09/30 05:19:57;;;;;;;5.60;3.23;;;18.10;99.90;;;;;;5013046;28;20476;-69
2023/09/30 05:22:24;;;;;;;5.77;4.10;;;18.30;99.90;;;;;;5012855;28;20183;-68
2023/09/30 05:24:53;;;;;;;5.40;3.97;;;18.20;99.90;;;;;;5012524;28;20497;-69
2023/09/30 05:27:19;;;;;;;4.70;3.20;;;18.30;99.90;;;;;;5012679;28;20633;-69
2023/09/30 05:29:45;;;;;;;6.60;3.90;;;18.30;99.90;;;;;;5012468;28;20912;-70
2023/09/30 05:32:10;;;;;;;6.23;3.70;;;18.40;99.90;;;;;;5013057;28;20501;-69
2023/09/30 05:34:37;;;;;;;5.80;3.90;;;18.30;99.90;;;;;;5012752;28;20212;-69
2023/09/30 05:37:03;;;;;;;5.27;3.70;;;18.10;99.90;;;;;;5012896;28;20240;-69
2023/09/30 05:39:28;;;;;;;5.00;3.57;;;18.30;99.90;;;;;;5012670;28;20406;-69
2023/09/30 05:41:55;;;;;;;4.87;3.60;;;18.40;99.90;;;;;;5013036;28;20202;-69
2023/09/30 05:44:20;;;;;;;4.80;3.63;;;18.40;99.90;;;;;;5013015;28;20168;-69
2023/09/30 05:46:47;;;;;;;4.90;3.60;;;18.30;99.90;;;;;;5012691;28;20430;-69
2023/09/30 05:49:13;;;;;;;8.80;4.30;;;18.30;99.90;;;;;;5012788;28;20188;-70
2023/09/30 05:51:40;;;;;;;6.07;3.47;;;18.40;99.90;;;;;;5012690;28;20454;-69
2023/09/30 05:54:09;;;;;;;6.10;4.50;;;18.50;99.90;;;;;;5012610;28;20403;-70
2023/09/30 05:56:36;;;;;;;7.07;4.70;;;18.30;99.90;;;;;;5012798;28;20457;-70
2023/09/30 05:59:03;;;;;;;4.30;3.70;;;18.30;99.90;;;;;;5012576;28;20423;-70
2023/09/30 06:01:29;;;;;;;5.40;3.40;;;18.50;99.90;;;;;;5012627;28;20419;-78
2023/09/30 06:03:54;;;;;;;7.23;3.97;;;18.60;99.90;;;;;;5012350;28;20423;-70
2023/09/30 06:06:20;;;;;;;4.27;3.70;;;18.70;99.90;;;;;;5012338;28;20409;-69
2023/09/30 06:08:46;;;;;;;6.63;3.97;;;18.70;99.90;;;;;;5012876;28;20227;-69
2023/09/30 06:11:24;;;;;;;6.27;4.23;;;18.40;99.90;;;;;;5012527;28;20196;-70
2023/09/30 06:13:52;;;;;;;6.43;4.73;;;18.10;99.90;;;;;;5014967;28;20478;-69
2023/09/30 06:16:18;;;;;;;7.90;4.30;;;18.20;99.90;;;;;;5016153;28;20403;-70
2023/09/30 06:18:45;;;;;;;7.60;4.90;;;18.20;99.90;;;;;;5016380;28;20844;-70
2023/09/30 06:21:11;;;;;;;6.30;4.00;;;18.20;99.90;;;;;;5016452;28;20179;-68
2023/09/30 06:23:36;;;;;;;7.37;4.47;;;18.10;99.90;;;;;;5015834;28;20449;-69
2023/09/30 06:26:03;;;;;;;6.93;4.03;;;18.00;99.90;;;;;;5015763;28;20468;-69
2023/09/30 06:28:30;;;;;;;10.70;4.90;;;18.00;99.90;;;;;;5014442;28;20569;-69
2023/09/30 06:30:56;;;;;;;4.07;3.67;;;17.90;99.90;;;;;;5016161;28;20545;-69
2023/09/30 06:33:22;;;;;;;7.67;4.20;;;17.90;99.90;;;;;;5015951;28;20492;-68
2023/09/30 06:35:50;;;;;;;6.90;4.23;;;18.00;99.90;;;;;;5016173;28;20754;-69
2023/09/30 06:38:19;;;;;;;8.87;4.50;;;18.00;99.90;;;;;;5015801;28;20203;-68
2023/09/30 06:40:49;;;;;;;4.53;4.00;;;17.90;99.90;;;;;;5015645;28;20426;-68
2023/09/30 06:43:17;;;;;;;7.73;4.90;;;18.00;99.90;;;;;;5015654;28;20474;-69
2023/09/30 06:45:44;;;;;;;6.67;4.40;;;18.10;99.90;;;;;;5016091;28;20411;-70
2023/09/30 06:48:12;;;;;;;9.77;5.40;;;18.20;99.90;;;;;;5015868;28;20437;-69
2023/09/30 06:50:40;;;;;;;6.30;4.83;;;18.30;99.90;;;;;;5015667;28;20538;-69
2023/09/30 06:53:06;;;;;;;5.77;4.50;;;18.40;99.90;;;;;;5015281;28;20418;-69
2023/09/30 06:55:31;;;;;;;5.90;4.83;;;18.50;99.90;;;;;;5015674;28;20415;-69
2023/09/30 06:57:57;;;;;;;10.97;5.33;;;18.50;99.90;;;;;;5015499;28;20509;-68
2023/09/30 07:00:23;;;;;;;7.53;4.30;;;18.30;99.90;;;;;;5015471;28;20180;-69
2023/09/30 07:02:49;;;;;;;6.00;4.57;;;18.20;99.90;;;;;;5015268;28;20180;-70
2023/09/30 07:05:15;;;;;;;9.00;5.03;;;18.00;99.90;;;;;;5015158;28;20172;-69
2023/09/30 07:07:44;;;;;;;7.40;5.00;;;18.20;99.90;;;;;;5015033;28;20449;-70
2023/09/30 07:10:11;;;;;;;8.53;4.60;;;18.60;99.90;;;;;;5014586;28;20467;-69
2023/09/30 07:12:37;;;;;;;5.47;4.37;;;18.60;99.90;;;;;;5015104;28;20403;-70
2023/09/30 07:15:04;;;;;;;5.30;3.83;;;18.80;99.90;;;;;;5014914;28;20407;-70
2023/09/30 07:17:30;;;;;;;9.77;4.57;;;19.10;99.90;;;;;;5015062;28;20199;-70
2023/09/30 07:19:55;;;;;;;6.57;4.70;;;19.10;99.90;;;;;;5015394;28;20449;-69
2023/09/30 07:22:21;;;;;;;4.77;4.30;;;19.10;99.90;;;;;;5013734;28;20442;-69
2023/09/30 07:24:46;;;;;;;8.70;5.20;;;19.10;99.90;;;;;;5014035;28;20198;-70
2023/09/30 07:27:12;;;;;;;6.87;4.67;;;18.70;99.90;;;;;;5014842;28;20176;-69
2023/09/30 07:29:37;;;;;;;11.17;5.00;;;18.60;99.90;;;;;;5015272;28;20180;-69
2023/09/30 07:32:03;;;;;;;8.40;5.00;;;18.50;99.90;;;;;;5014688;28;20184;-69
2023/09/30 07:34:29;;;;;;;5.23;4.20;;;18.30;99.90;;;;;;5014517;28;20236;-70
2023/09/30 07:36:55;;;;;;;11.17;5.20;;;18.40;99.90;;;;;;5015016;28;20175;-70
2023/09/30 07:39:21;;;;;;;7.20;5.07;;;18.60;99.90;;;;;;5014723;28;20263;-70
2023/09/30 07:41:46;;;;;;;8.20;5.80;;;18.60;99.90;;;;;;5014652;28;20565;-69
2023/09/30 07:44:12;;;;;;;6.53;4.57;;;18.70;99.90;;;;;;5014482;28;20168;-69
2023/09/30 07:46:37;;;;;;;6.93;4.27;;;18.80;99.90;;;;;;5013046;28;20176;-69
2023/09/30 07:49:03;;;;;;;6.73;4.33;;;19.00;99.90;;;;;;5014201;28;20219;-68
2023/09/30 07:51:29;;;;;;;8.00;5.40;;;19.20;99.90;;;;;;5014821;28;20199;-69
2023/09/30 07:53:55;;;;;;;6.00;5.13;;;19.10;99.90;;;;;;5014499;28;20254;-69
2023/09/30 07:56:21;;;;;;;7.20;5.20;;;19.10;99.90;;;;;;5014759;28;20893;-69
2023/09/30 07:58:48;;;;;;;6.60;4.20;;;19.10;99.90;;;;;;5014007;28;20477;-70
2023/09/30 08:01:14;;;;;;;5.60;5.00;;;19.10;99.90;;;;;;5013898;28;20422;-69
2023/09/30 08:03:40;;;;;;;8.07;5.57;;;19.00;99.90;;;;;;5014415;28;20415;-69
2023/09/30 08:06:08;;;;;;;8.27;4.87;;;19.10;99.90;;;;;;5014101;28;20418;-69
2023/09/30 08:08:34;;;;;;;13.20;4.93;;;18.90;99.90;;;;;;5014309;28;20298;-69
2023/09/30 08:11:00;;;;;;;7.50;5.30;;;19.00;99.90;;;;;;5014776;28;20839;-69
2023/09/30 08:13:26;;;;;;;6.83;5.27;;;19.10;99.90;;;;;;5014204;28;20446;-69
2023/09/30 08:15:53;;;;;;;7.47;4.50;;;19.10;99.90;;;;;;5014345;28;20182;-69
2023/09/30 08:18:18;;;;;;;7.57;5.03;;;19.00;99.90;;;;;;5014566;28;20238;-68
2023/09/30 08:20:44;;;;;;;7.77;6.20;;;18.70;99.90;;;;;;5014284;28;20407;-69
2023/09/30 08:23:11;;;;;;;7.37;5.40;;;19.10;99.90;;;;;;5014817;28;20183;-68
2023/09/30 08:25:37;;;;;;;7.07;5.10;;;19.10;99.90;;;;;;5013909;28;20180;-68
2023/09/30 08:28:04;;;;;;;7.73;5.37;;;18.70;99.90;;;;;;5013830;28;20435;-70
2023/09/30 08:30:30;;;;;;;12.60;6.40;;;18.70;99.90;;;;;;5013452;28;20545;-69
2023/09/30 08:32:56;;;;;;;6.70;4.67;;;19.00;99.90;;;;;;5013699;28;20910;-69
2023/09/30 08:35:21;;;;;;;6.63;5.37;;;19.30;99.90;;;;;;5013600;28;20415;-69
2023/09/30 08:37:47;;;;;;;9.13;5.13;;;19.30;99.90;;;;;;5014853;28;20187;-70
2023/09/30 08:40:12;;;;;;;17.23;5.70;;;19.00;99.90;;;;;;5013409;28;20275;-70
2023/09/30 08:42:41;;;;;;;7.47;5.60;;;18.90;99.90;;;;;;5013283;28;20207;-70
2023/09/30 08:45:10;;;;;;;8.33;6.23;;;18.70;99.90;;;;;;5012731;28;20543;-69
2023/09/30 08:47:36;;;;;;;8.83;6.87;;;18.80;99.90;;;;;;5013345;28;20517;-69
2023/09/30 08:50:08;;;;;;;8.67;6.00;;;18.90;99.90;;;;;;5013368;28;20976;-68
2023/09/30 08:52:34;;;;;;;9.77;6.30;;;19.20;99.90;;;;;;5012091;28;20721;-70
2023/09/30 08:55:01;;;;;;;7.40;5.90;;;19.20;99.90;;;;;;5013314;28;20905;-72
2023/09/30 08:57:28;;;;;;;7.20;6.10;;;19.40;99.90;;;;;;5013145;28;20423;-73
2023/09/30 08:59:53;;;;;;;8.63;6.23;;;19.40;99.90;;;;;;5013030;28;20409;-72
2023/09/30 09:02:19;;;;;;;7.17;5.30;;;19.50;99.90;;;;;;5011520;28;20518;-72
2023/09/30 09:04:49;;;;;;;11.23;6.73;;;19.60;99.90;;;;;;5013209;28;20186;-74
2023/09/30 09:07:15;;;;;;;7.63;5.40;;;19.50;99.90;;;;;;5012924;28;20183;-72
2023/09/30 09:09:40;;;;;;;12.90;6.13;;;19.40;99.90;;;;;;5013201;28;20387;-76
2023/09/30 09:12:06;;;;;;;9.53;5.30;;;19.50;99.90;;;;;;5013032;28;20172;-76
2023/09/30 09:14:40;;;;;;;7.17;6.20;;;19.50;99.90;;;;;;5013331;28;20356;-72
2023/09/30 09:17:07;;;;;;;11.10;6.80;;;19.70;99.90;;;;;;5013912;28;20403;-71
2023/09/30 09:19:34;;;;;;;6.00;5.17;;;19.70;99.90;;;;;;5012955;28;20415;-70
2023/09/30 09:22:01;;;;;;;5.83;4.00;;;19.90;99.90;;;;;;5013340;28;20407;-70
2023/09/30 09:24:28;;;;;;;6.87;5.00;;;20.10;99.90;;;;;;5013576;28;20502;-73
2023/09/30 09:27:04;;;;;;;8.30;5.77;;;20.20;99.90;;;;;;5013127;28;20413;-72
2023/09/30 09:29:30;;;;;;;8.37;4.80;;;20.30;99.90;;;;;;5013026;28;20569;-73
2023/09/30 09:32:08;;;;;;;5.93;4.90;;;20.30;99.90;;;;;;5012750;28;20800;-71
2023/09/30 09:34:33;;;;;;;8.13;5.57;;;20.30;99.90;;;;;;5013191;28;20309;-71
2023/09/30 09:36:59;;;;;;;9.03;5.70;;;20.50;99.90;;;;;;5012886;28;20446;-71
2023/09/30 09:39:31;;;;;;;9.03;5.73;;;20.30;99.90;;;;;;5012920;28;20679;-69
2023/09/30 09:41:57;;;;;;;7.70;5.90;;;20.40;99.90;;;;;;5012457;28;20172;-70
2023/09/30 09:44:27;;;;;;;6.37;5.10;;;20.20;99.90;;;;;;5012477;28;20403;-71
2023/09/30 09:46:52;;;;;;;6.23;4.77;;;20.20;99.90;;;;;;5012484;28;20465;-67
2023/09/30 09:49:20;;;;;;;9.00;5.40;;;20.30;99.90;;;;;;5012012;28;20427;-71
2023/09/30 09:51:47;;;;;;;7.00;4.43;;;20.30;99.90;;;;;;5012055;28;20271;-71
2023/09/30 09:54:14;;;;;;;10.17;6.17;;;20.40;99.90;;;;;;5012743;28;20399;-74
2023/09/30 09:56:40;;;;;;;7.70;4.77;;;20.50;99.90;;;;;;5012410;28;20461;-70
2023/09/30 09:59:07;;;;;;;8.10;5.70;;;20.60;99.90;;;;;;5012349;28;20517;-70
2023/09/30 10:01:36;;;;;;;6.93;4.43;;;20.80;99.90;;;;;;5012139;28;20407;-69
2023/09/30 10:04:02;;;;;;;8.20;5.07;;;21.20;99.90;;;;;;5012372;28;20486;-71
2023/09/30 10:06:28;;;;;;;6.83;5.20;;;20.90;99.90;;;;;;5011927;28;20838;-70
2023/09/30 10:08:55;;;;;;;7.83;5.83;;;20.70;99.90;;;;;;5012001;28;20967;-70
2023/09/30 10:11:22;;;;;;;8.30;4.77;;;20.70;99.90;;;;;;5012256;28;20443;-73
2023/09/30 10:14:00;;;;;;;7.53;5.37;;;21.00;99.90;;;;;;5012602;28;20909;-70
2023/09/30 10:16:35;;;;;;;8.23;4.90;;;21.30;99.90;;;;;;5012500;28;20415;-69
2023/09/30 10:19:07;;;;;;;6.10;5.10;;;21.40;99.90;;;;;;5012398;28;20433;-71
2023/09/30 10:21:33;;;;;;;6.70;4.63;;;21.60;99.90;;;;;;5012580;28;20446;-69
2023/09/30 10:24:24;;;;;;;8.77;4.80;;;21.90;99.90;;;;;;5012190;28;20781;-69
2023/09/30 10:27:37;;;;;;;9.50;5.47;;;22.30;99.90;;;;;;5012741;28;20650;-70
2023/09/30 10:30:23;;;;;;;7.27;5.70;;;22.10;99.90;;;;;;5012467;28;20459;-68
2023/09/30 10:32:51;;;;;;;5.43;4.60;;;22.40;99.90;;;;;;5013369;28;20434;-68
2023/09/30 10:35:21;;;;;;;7.90;4.20;;;22.20;99.90;;;;;;5014241;28;20395;-68
2023/09/30 10:37:48;;;;;;;6.63;5.40;;;22.30;99.90;;;;;;5013991;28;20431;-68
2023/09/30 10:40:31;;;;;;;8.47;5.70;;;22.50;99.90;;;;;;5012853;28;20406;-72
2023/09/30 10:42:57;;;;;;;9.47;5.20;;;22.60;99.90;;;;;;5012609;28;20458;-73
2023/09/30 10:45:46;;;;;;;7.97;4.83;;;22.40;99.90;;;;;;5011591;28;20414;-74
2023/09/30 10:48:40;;;;;;;9.53;4.80;;;22.70;99.90;;;;;;4992675;28;20430;-73
2023/09/30 10:51:14;;;;;;;9.40;5.87;;;22.80;99.90;;;;;;4996601;28;20799;-70
2023/09/30 10:53:43;;;;;;;6.03;4.67;;;22.80;99.90;;;;;;5012543;28;20767;-72
2023/09/30 10:56:08;;;;;;;7.03;4.90;;;22.70;99.90;;;;;;5011950;28;20948;-70
2023/09/30 10:58:45;;;;;;;5.97;5.27;;;23.10;99.90;;;;;;5012142;28;20415;-72
2023/09/30 11:01:13;;;;;;;8.50;5.40;;;23.10;99.90;;;;;;5015753;28;20657;-71
2023/09/30 11:03:39;;;;;;;7.30;5.30;;;22.40;99.90;;;;;;5015335;28;20399;-70
2023/09/30 11:06:05;;;;;;;8.17;5.80;;;22.30;99.90;;;;;;5014943;28;20442;-71
2023/09/30 11:08:31;;;;;;;6.97;5.60;;;22.20;99.90;;;;;;5013438;28;20450;-71
2023/09/30 11:10:57;;;;;;;8.90;5.63;;;22.00;99.90;;;;;;5015141;28;20198;-68
2023/09/30 11:13:23;;;;;;;10.40;5.97;;;21.90;99.90;;;;;;5013778;28;20490;-70
2023/09/30 11:16:01;;;;;;;7.93;5.43;;;21.90;99.90;;;;;;5013013;28;20214;-70
2023/09/30 11:18:26;;;;;;;7.60;5.23;;;21.70;99.90;;;;;;5015111;28;20427;-70
2023/09/30 11:21:04;;;;;;;6.70;5.60;;;22.20;99.90;;;;;;5015280;28;20740;-71
2023/09/30 11:23:30;;;;;;;10.03;5.60;;;22.50;99.90;;;;;;5015272;28;20172;-70
2023/09/30 11:25:56;;;;;;;6.50;4.87;;;22.50;99.90;;;;;;5013246;28;20494;-71
2023/09/30 11:28:23;;;;;;;8.10;5.20;;;23.40;99.90;;;;;;5014987;28;20431;-71
2023/09/30 11:30:59;;;;;;;8.40;5.93;;;25.00;99.90;;;;;;5014988;28;20521;-71
2023/09/30 11:33:25;;;;;;;9.13;5.90;;;24.80;98.90;;;;;;5014842;28;20402;-71
2023/09/30 11:36:02;;;;;;;10.10;5.80;;;24.50;99.20;;;;;;5014738;28;20481;-71
2023/09/30 11:38:29;;;;;;;10.30;5.93;;;24.50;98.60;;;;;;5014712;28;20418;-71
2023/09/30 11:41:06;;;;;;;8.93;5.67;;;26.00;97.60;;;;;;5014565;28;20434;-71
2023/09/30 11:43:34;;;;;;;12.17;6.60;;;27.20;95.30;;;;;;5015360;28;20748;-71
2023/09/30 11:46:13;;;;;;;8.17;6.10;;;28.00;93.20;;;;;;5014893;28;20438;-71
2023/09/30 11:48:55;;;;;;;9.33;5.10;;;27.60;92.30;;;;;;5013113;28;20961;-71
2023/09/30 11:51:24;;;;;;;7.37;4.97;;;28.30;91.10;;;;;;5014633;28;20451;-71
2023/09/30 11:53:50;;;;;;;6.43;4.90;;;28.60;89.80;;;;;;5014385;28;20400;-71
2023/09/30 11:56:16;;;;;;;7.93;5.17;;;29.60;86.80;;;;;;5014310;28;20461;-70
2023/09/30 11:58:42;;;;;;;8.37;5.57;;;29.90;83.30;;;;;;5014263;28;20435;-71
2023/09/30 12:01:10;;;;;;;8.30;5.67;;;29.20;84.70;;;;;;5014709;28;20165;-71
2023/09/30 12:03:39;;;;;;;8.10;5.33;;;27.10;88.20;;;;;;5014933;28;20164;-70
2023/09/30 12:06:10;;;;;;;9.57;5.07;;;27.30;89.00;;;;;;5014628;28;20840;-71
2023/09/30 12:08:42;;;;;;;9.07;5.90;;;27.60;87.70;;;;;;5038270;23;20493;-72
2023/09/30 12:11:07;;;;;;;9.47;5.63;;;27.80;87.10;;;;;;5013365;28;20443;-72
2023/09/30 12:13:33;;;;;;;6.10;4.37;;;27.50;87.70;;;;;;5014107;28;20976;-71
2023/09/30 12:15:59;;;;;;;7.77;5.33;;;28.00;85.00;;;;;;5014248;28;20252;-73
2023/09/30 12:18:24;;;;;;;9.33;5.57;;;26.60;86.30;;;;;;5014132;28;20237;-72
2023/09/30 12:20:52;;;;;;;8.73;6.17;;;26.00;88.30;;;;;;5014133;28;20663;-71
2023/09/30 12:23:18;;;;;;;7.97;5.90;;;25.90;89.80;;;;;;5014257;28;20590;-73
2023/09/30 12:25:44;;;;;;;7.80;5.73;;;25.60;90.30;;;;;;5013954;28;20945;-72
2023/09/30 12:28:10;;;;;;;6.43;4.93;;;25.10;90.40;;;;;;5013952;28;20426;-73
2023/09/30 12:30:35;;;;;;;9.20;5.77;;;24.20;91.40;;;;;;5014424;28;20447;-71
2023/09/30 12:33:01;;;;;;;6.57;4.70;;;24.00;92.50;;;;;;5014281;28;20650;-72
2023/09/30 12:35:27;;;;;;;7.97;5.30;;;24.00;92.30;;;;;;5014253;28;20180;-73
2023/09/30 12:37:52;;;;;;;8.60;5.53;;;23.70;93.00;;;;;;5014047;28;20176;-72
2023/09/30 12:40:18;;;;;;;8.63;5.50;;;23.80;93.00;;;;;;5013678;28;20168;-73
2023/09/30 12:42:44;;;;;;;9.47;5.70;;;24.90;91.90;;;;;;5014021;28;20172;-73
2023/09/30 12:45:10;;;;;;;8.53;4.97;;;26.20;91.00;;;;;;5014022;28;20175;-72
2023/09/30 12:47:36;;;;;;;6.83;4.83;;;26.70;89.70;;;;;;5013369;28;20949;-72
2023/09/30 12:50:03;;;;;;;7.60;5.33;;;27.30;86.50;;;;;;5013656;28;20534;-72